sensor_id;sensor_type;location;lat;lon;timestamp;P1;durP1;ratioP1;P2;durP2;ratioP2
75758;SDS011;64371;47.566;19.086;2023-07-31T00:07:03;4.30;;;3.60;;
75758;SDS011;64371;47.566;19.086;2023-07-31T00:10:08;5.60;;;3.53;;
75758;SDS011;64371;47.566;19.086;2023-07-31T00:13:11;5.23;;;3.77;;
75758;SDS011;64371;47.566;19.086;2023-07-31T00:16:14;6.72;;;3.70;;
75758;SDS011;64371;47.566;19.086;2023-07-31T00:19:16;4.20;;;3.50;;
75758;SDS011;64371;47.566;19.086;2023-07-31T00:22:19;5.45;;;3.22;;
75758;SDS011;64371;47.566;19.086;2023-07-31T00:25:21;6.85;;;3.50;;
75758;SDS011;64371;47.566;19.086;2023-07-31T00:28:23;4.77;;;3.60;;
75758;SDS011;64371;47.566;19.086;2023-07-31T00:31:26;3.95;;;3.47;;
75758;SDS011;64371;47.566;19.086;2023-07-31T00:34:28;4.15;;;3.72;;
75758;SDS011;64371;47.566;19.086;2023-07-31T00:37:30;4.80;;;3.58;;
75758;SDS011;64371;47.566;19.086;2023-07-31T00:40:36;4.25;;;3.63;;
75758;SDS011;64371;47.566;19.086;2023-07-31T00:43:39;4.77;;;3.37;;
75758;SDS011;64371;47.566;19.086;2023-07-31T00:46:42;5.00;;;3.40;;
75758;SDS011;64371;47.566;19.086;2023-07-31T00:49:44;4.47;;;3.80;;
75758;SDS011;64371;47.566;19.086;2023-07-31T00:52:47;5.03;;;3.70;;
75758;SDS011;64371;47.566;19.086;2023-07-31T00:55:52;4.88;;;4.18;;
75758;SDS011;64371;47.566;19.086;2023-07-31T00:58:55;5.33;;;4.10;;
75758;SDS011;64371;47.566;19.086;2023-07-31T01:01:57;5.10;;;4.10;;
75758;SDS011;64371;47.566;19.086;2023-07-31T01:05:00;5.20;;;4.53;;
75758;SDS011;64371;47.566;19.086;2023-07-31T01:08:05;5.18;;;3.90;;
75758;SDS011;64371;47.566;19.086;2023-07-31T01:11:14;6.75;;;4.85;;
75758;SDS011;64371;47.566;19.086;2023-07-31T01:14:19;5.40;;;4.60;;
75758;SDS011;64371;47.566;19.086;2023-07-31T01:17:21;5.72;;;4.93;;
75758;SDS011;64371;47.566;19.086;2023-07-31T01:20:24;5.32;;;4.70;;
75758;SDS011;64371;47.566;19.086;2023-07-31T01:23:38;8.43;;;5.60;;
75758;SDS011;64371;47.566;19.086;2023-07-31T01:26:45;6.32;;;5.43;;
75758;SDS011;64371;47.566;19.086;2023-07-31T01:33:16;6.55;;;5.25;;
75758;SDS011;64371;47.566;19.086;2023-07-31T01:36:19;9.00;;;5.63;;
75758;SDS011;64371;47.566;19.086;2023-07-31T01:39:22;5.97;;;5.38;;
75758;SDS011;64371;47.566;19.086;2023-07-31T01:42:24;6.82;;;5.85;;
75758;SDS011;64371;47.566;19.086;2023-07-31T01:45:26;7.07;;;5.73;;
75758;SDS011;64371;47.566;19.086;2023-07-31T01:48:29;8.07;;;6.05;;
75758;SDS011;64371;47.566;19.086;2023-07-31T01:51:37;9.00;;;6.30;;
75758;SDS011;64371;47.566;19.086;2023-07-31T01:54:39;9.00;;;6.20;;
75758;SDS011;64371;47.566;19.086;2023-07-31T01:57:42;6.90;;;6.00;;
75758;SDS011;64371;47.566;19.086;2023-07-31T02:00:45;7.30;;;5.60;;
75758;SDS011;64371;47.566;19.086;2023-07-31T02:03:48;8.57;;;6.18;;
75758;SDS011;64371;47.566;19.086;2023-07-31T02:06:50;7.63;;;5.97;;
75758;SDS011;64371;47.566;19.086;2023-07-31T02:09:53;13.00;;;6.03;;
75758;SDS011;64371;47.566;19.086;2023-07-31T02:12:55;6.50;;;5.75;;
75758;SDS011;64371;47.566;19.086;2023-07-31T02:15:59;7.13;;;5.33;;
75758;SDS011;64371;47.566;19.086;2023-07-31T02:19:02;6.40;;;5.70;;
75758;SDS011;64371;47.566;19.086;2023-07-31T02:22:04;6.25;;;5.57;;
75758;SDS011;64371;47.566;19.086;2023-07-31T02:25:07;6.07;;;5.40;;
75758;SDS011;64371;47.566;19.086;2023-07-31T02:28:10;7.88;;;5.63;;
75758;SDS011;64371;47.566;19.086;2023-07-31T02:31:12;5.87;;;4.83;;
75758;SDS011;64371;47.566;19.086;2023-07-31T02:34:15;5.10;;;4.60;;
75758;SDS011;64371;47.566;19.086;2023-07-31T02:37:17;5.20;;;4.70;;
75758;SDS011;64371;47.566;19.086;2023-07-31T02:40:20;6.63;;;4.38;;
75758;SDS011;64371;47.566;19.086;2023-07-31T02:43:23;7.93;;;4.38;;
75758;SDS011;64371;47.566;19.086;2023-07-31T02:46:25;4.70;;;4.03;;
75758;SDS011;64371;47.566;19.086;2023-07-31T02:49:28;4.50;;;3.70;;
75758;SDS011;64371;47.566;19.086;2023-07-31T02:52:30;5.00;;;3.55;;
75758;SDS011;64371;47.566;19.086;2023-07-31T02:55:33;3.85;;;3.45;;
75758;SDS011;64371;47.566;19.086;2023-07-31T02:58:35;5.30;;;3.40;;
75758;SDS011;64371;47.566;19.086;2023-07-31T03:01:37;3.83;;;3.43;;
75758;SDS011;64371;47.566;19.086;2023-07-31T03:04:40;4.57;;;3.47;;
75758;SDS011;64371;47.566;19.086;2023-07-31T03:07:42;5.88;;;3.92;;
75758;SDS011;64371;47.566;19.086;2023-07-31T03:10:45;4.97;;;3.83;;
75758;SDS011;64371;47.566;19.086;2023-07-31T03:13:47;5.22;;;3.50;;
75758;SDS011;64371;47.566;19.086;2023-07-31T03:16:49;4.63;;;3.27;;
75758;SDS011;64371;47.566;19.086;2023-07-31T03:19:52;6.07;;;3.47;;
75758;SDS011;64371;47.566;19.086;2023-07-31T03:22:54;7.07;;;3.97;;
75758;SDS011;64371;47.566;19.086;2023-07-31T03:25:57;5.25;;;3.70;;
75758;SDS011;64371;47.566;19.086;2023-07-31T03:29:03;5.95;;;3.80;;
75758;SDS011;64371;47.566;19.086;2023-07-31T03:32:05;5.57;;;4.27;;
75758;SDS011;64371;47.566;19.086;2023-07-31T03:35:08;3.95;;;2.85;;
75758;SDS011;64371;47.566;19.086;2023-07-31T03:38:10;5.32;;;3.28;;
75758;SDS011;64371;47.566;19.086;2023-07-31T03:41:16;4.68;;;3.08;;
75758;SDS011;64371;47.566;19.086;2023-07-31T03:44:19;6.90;;;3.45;;
75758;SDS011;64371;47.566;19.086;2023-07-31T03:47:22;5.10;;;3.00;;
75758;SDS011;64371;47.566;19.086;2023-07-31T03:50:27;5.78;;;3.33;;
75758;SDS011;64371;47.566;19.086;2023-07-31T03:53:29;5.18;;;3.40;;
75758;SDS011;64371;47.566;19.086;2023-07-31T03:56:32;6.32;;;3.60;;
75758;SDS011;64371;47.566;19.086;2023-07-31T03:59:37;6.25;;;3.60;;
75758;SDS011;64371;47.566;19.086;2023-07-31T04:02:42;4.17;;;3.20;;
75758;SDS011;64371;47.566;19.086;2023-07-31T04:05:44;5.53;;;3.05;;
75758;SDS011;64371;47.566;19.086;2023-07-31T04:08:47;3.00;;;2.70;;
75758;SDS011;64371;47.566;19.086;2023-07-31T04:11:49;5.60;;;2.55;;
75758;SDS011;64371;47.566;19.086;2023-07-31T04:14:52;5.45;;;2.58;;
75758;SDS011;64371;47.566;19.086;2023-07-31T04:17:54;3.83;;;2.50;;
75758;SDS011;64371;47.566;19.086;2023-07-31T04:20:57;5.20;;;2.70;;
75758;SDS011;64371;47.566;19.086;2023-07-31T04:24:00;4.63;;;2.92;;
75758;SDS011;64371;47.566;19.086;2023-07-31T04:27:03;3.10;;;2.35;;
75758;SDS011;64371;47.566;19.086;2023-07-31T04:30:05;4.38;;;2.60;;
75758;SDS011;64371;47.566;19.086;2023-07-31T04:33:08;4.70;;;2.73;;
75758;SDS011;64371;47.566;19.086;2023-07-31T04:36:11;2.70;;;2.10;;
75758;SDS011;64371;47.566;19.086;2023-07-31T04:39:13;3.50;;;2.35;;
75758;SDS011;64371;47.566;19.086;2023-07-31T04:42:15;3.78;;;2.50;;
75758;SDS011;64371;47.566;19.086;2023-07-31T04:45:18;4.45;;;2.40;;
75758;SDS011;64371;47.566;19.086;2023-07-31T04:48:20;4.00;;;1.90;;
75758;SDS011;64371;47.566;19.086;2023-07-31T04:51:23;3.58;;;2.17;;
75758;SDS011;64371;47.566;19.086;2023-07-31T04:54:25;6.10;;;2.35;;
75758;SDS011;64371;47.566;19.086;2023-07-31T04:57:28;2.78;;;1.92;;
75758;SDS011;64371;47.566;19.086;2023-07-31T05:00:31;2.97;;;2.13;;
75758;SDS011;64371;47.566;19.086;2023-07-31T05:03:33;3.40;;;2.20;;
75758;SDS011;64371;47.566;19.086;2023-07-31T05:06:36;3.90;;;1.95;;
75758;SDS011;64371;47.566;19.086;2023-07-31T05:09:39;2.97;;;1.92;;
75758;SDS011;64371;47.566;19.086;2023-07-31T05:12:41;3.30;;;1.80;;
75758;SDS011;64371;47.566;19.086;2023-07-31T05:15:43;3.17;;;1.90;;
75758;SDS011;64371;47.566;19.086;2023-07-31T05:18:46;3.03;;;1.77;;
75758;SDS011;64371;47.566;19.086;2023-07-31T05:21:48;4.00;;;2.03;;
75758;SDS011;64371;47.566;19.086;2023-07-31T05:24:50;2.83;;;1.73;;
75758;SDS011;64371;47.566;19.086;2023-07-31T05:27:53;2.72;;;1.60;;
75758;SDS011;64371;47.566;19.086;2023-07-31T05:30:59;4.00;;;1.70;;
75758;SDS011;64371;47.566;19.086;2023-07-31T05:34:04;2.07;;;1.50;;
75758;SDS011;64371;47.566;19.086;2023-07-31T05:37:07;2.05;;;1.30;;
75758;SDS011;64371;47.566;19.086;2023-07-31T05:40:09;3.13;;;1.50;;
75758;SDS011;64371;47.566;19.086;2023-07-31T05:43:12;2.33;;;1.60;;
75758;SDS011;64371;47.566;19.086;2023-07-31T05:46:15;2.10;;;1.90;;
75758;SDS011;64371;47.566;19.086;2023-07-31T05:49:17;3.13;;;1.40;;
75758;SDS011;64371;47.566;19.086;2023-07-31T05:52:19;1.88;;;1.50;;
75758;SDS011;64371;47.566;19.086;2023-07-31T05:55:22;3.85;;;1.70;;
75758;SDS011;64371;47.566;19.086;2023-07-31T05:58:25;3.03;;;1.77;;
75758;SDS011;64371;47.566;19.086;2023-07-31T06:01:28;1.92;;;1.40;;
75758;SDS011;64371;47.566;19.086;2023-07-31T06:04:30;4.20;;;1.60;;
75758;SDS011;64371;47.566;19.086;2023-07-31T06:07:33;3.40;;;1.60;;
75758;SDS011;64371;47.566;19.086;2023-07-31T06:10:35;4.40;;;1.63;;
75758;SDS011;64371;47.566;19.086;2023-07-31T06:13:38;4.25;;;1.42;;
75758;SDS011;64371;47.566;19.086;2023-07-31T06:16:44;5.13;;;2.15;;
75758;SDS011;64371;47.566;19.086;2023-07-31T06:19:47;1.93;;;1.40;;
75758;SDS011;64371;47.566;19.086;2023-07-31T06:22:49;2.30;;;1.50;;
75758;SDS011;64371;47.566;19.086;2023-07-31T06:25:51;2.75;;;1.65;;
75758;SDS011;64371;47.566;19.086;2023-07-31T06:28:54;3.83;;;1.63;;
75758;SDS011;64371;47.566;19.086;2023-07-31T06:31:56;4.43;;;1.58;;
75758;SDS011;64371;47.566;19.086;2023-07-31T06:35:05;3.70;;;1.33;;
75758;SDS011;64371;47.566;19.086;2023-07-31T06:38:07;1.90;;;1.25;;
75758;SDS011;64371;47.566;19.086;2023-07-31T06:41:09;4.13;;;1.60;;
75758;SDS011;64371;47.566;19.086;2023-07-31T06:44:12;3.65;;;1.40;;
75758;SDS011;64371;47.566;19.086;2023-07-31T06:47:14;1.98;;;1.38;;
75758;SDS011;64371;47.566;19.086;2023-07-31T06:50:17;5.77;;;1.70;;
75758;SDS011;64371;47.566;19.086;2023-07-31T06:53:19;4.40;;;1.35;;
75758;SDS011;64371;47.566;19.086;2023-07-31T06:56:21;2.72;;;1.38;;
75758;SDS011;64371;47.566;19.086;2023-07-31T06:59:24;2.25;;;1.15;;
75758;SDS011;64371;47.566;19.086;2023-07-31T07:02:26;2.50;;;1.40;;
75758;SDS011;64371;47.566;19.086;2023-07-31T07:05:29;2.30;;;1.50;;
75758;SDS011;64371;47.566;19.086;2023-07-31T07:08:31;2.42;;;1.20;;
75758;SDS011;64371;47.566;19.086;2023-07-31T07:11:33;3.03;;;1.88;;
75758;SDS011;64371;47.566;19.086;2023-07-31T07:14:36;2.08;;;1.60;;
75758;SDS011;64371;47.566;19.086;2023-07-31T07:17:39;5.18;;;1.63;;
75758;SDS011;64371;47.566;19.086;2023-07-31T07:20:51;4.60;;;1.60;;
75758;SDS011;64371;47.566;19.086;2023-07-31T07:23:55;3.28;;;1.50;;
75758;SDS011;64371;47.566;19.086;2023-07-31T07:26:57;3.35;;;1.83;;
75758;SDS011;64371;47.566;19.086;2023-07-31T07:30:00;2.70;;;1.40;;
75758;SDS011;64371;47.566;19.086;2023-07-31T07:33:02;5.68;;;1.63;;
75758;SDS011;64371;47.566;19.086;2023-07-31T07:36:05;3.10;;;1.50;;
75758;SDS011;64371;47.566;19.086;2023-07-31T07:39:11;4.15;;;1.30;;
75758;SDS011;64371;47.566;19.086;2023-07-31T07:42:14;4.00;;;1.77;;
75758;SDS011;64371;47.566;19.086;2023-07-31T07:45:16;3.50;;;1.70;;
75758;SDS011;64371;47.566;19.086;2023-07-31T07:48:19;3.42;;;1.45;;
75758;SDS011;64371;47.566;19.086;2023-07-31T07:51:21;3.63;;;1.33;;
75758;SDS011;64371;47.566;19.086;2023-07-31T07:54:24;2.13;;;1.33;;
75758;SDS011;64371;47.566;19.086;2023-07-31T07:57:26;2.58;;;1.20;;
75758;SDS011;64371;47.566;19.086;2023-07-31T08:00:30;2.55;;;1.30;;
75758;SDS011;64371;47.566;19.086;2023-07-31T08:03:32;2.95;;;1.23;;
75758;SDS011;64371;47.566;19.086;2023-07-31T08:06:35;2.23;;;1.40;;
75758;SDS011;64371;47.566;19.086;2023-07-31T08:09:37;3.40;;;1.15;;
75758;SDS011;64371;47.566;19.086;2023-07-31T08:12:40;3.63;;;1.77;;
75758;SDS011;64371;47.566;19.086;2023-07-31T08:15:42;2.25;;;1.38;;
75758;SDS011;64371;47.566;19.086;2023-07-31T08:18:45;3.00;;;1.52;;
75758;SDS011;64371;47.566;19.086;2023-07-31T08:21:48;3.47;;;1.17;;
75758;SDS011;64371;47.566;19.086;2023-07-31T08:24:50;2.72;;;1.40;;
75758;SDS011;64371;47.566;19.086;2023-07-31T08:27:53;2.80;;;1.40;;
75758;SDS011;64371;47.566;19.086;2023-07-31T08:30:56;2.28;;;1.67;;
75758;SDS011;64371;47.566;19.086;2023-07-31T08:33:58;3.28;;;1.40;;
75758;SDS011;64371;47.566;19.086;2023-07-31T08:37:01;5.17;;;1.90;;
75758;SDS011;64371;47.566;19.086;2023-07-31T08:40:04;2.42;;;1.42;;
75758;SDS011;64371;47.566;19.086;2023-07-31T08:43:08;2.08;;;1.50;;
75758;SDS011;64371;47.566;19.086;2023-07-31T08:46:10;3.50;;;1.60;;
75758;SDS011;64371;47.566;19.086;2023-07-31T08:49:13;2.63;;;1.77;;
75758;SDS011;64371;47.566;19.086;2023-07-31T08:52:17;3.33;;;1.40;;
75758;SDS011;64371;47.566;19.086;2023-07-31T08:55:19;2.17;;;1.30;;
75758;SDS011;64371;47.566;19.086;2023-07-31T08:58:32;1.83;;;1.42;;
75758;SDS011;64371;47.566;19.086;2023-07-31T09:01:37;5.18;;;1.98;;
75758;SDS011;64371;47.566;19.086;2023-07-31T09:04:45;3.33;;;1.30;;
75758;SDS011;64371;47.566;19.086;2023-07-31T09:07:48;1.90;;;1.50;;
75758;SDS011;64371;47.566;19.086;2023-07-31T09:10:52;2.38;;;1.42;;
75758;SDS011;64371;47.566;19.086;2023-07-31T09:13:56;1.38;;;1.20;;
75758;SDS011;64371;47.566;19.086;2023-07-31T09:16:59;3.63;;;1.65;;
75758;SDS011;64371;47.566;19.086;2023-07-31T09:20:15;3.95;;;1.67;;
75758;SDS011;64371;47.566;19.086;2023-07-31T09:23:22;4.03;;;1.60;;
75758;SDS011;64371;47.566;19.086;2023-07-31T09:26:36;3.95;;;1.48;;
75758;SDS011;64371;47.566;19.086;2023-07-31T09:29:39;1.77;;;1.40;;
75758;SDS011;64371;47.566;19.086;2023-07-31T09:32:42;4.95;;;1.63;;
75758;SDS011;64371;47.566;19.086;2023-07-31T09:35:46;2.85;;;1.30;;
75758;SDS011;64371;47.566;19.086;2023-07-31T09:38:50;2.37;;;1.40;;
75758;SDS011;64371;47.566;19.086;2023-07-31T09:41:53;2.75;;;1.27;;
75758;SDS011;64371;47.566;19.086;2023-07-31T09:45:18;5.53;;;1.48;;
75758;SDS011;64371;47.566;19.086;2023-07-31T09:48:29;3.78;;;1.77;;
75758;SDS011;64371;47.566;19.086;2023-07-31T09:51:32;3.67;;;1.50;;
75758;SDS011;64371;47.566;19.086;2023-07-31T09:54:40;2.63;;;1.60;;
75758;SDS011;64371;47.566;19.086;2023-07-31T09:57:44;2.95;;;1.42;;
75758;SDS011;64371;47.566;19.086;2023-07-31T10:00:48;3.58;;;1.70;;
75758;SDS011;64371;47.566;19.086;2023-07-31T10:03:50;4.88;;;1.65;;
75758;SDS011;64371;47.566;19.086;2023-07-31T10:06:53;3.13;;;1.52;;
75758;SDS011;64371;47.566;19.086;2023-07-31T10:09:59;1.83;;;1.27;;
75758;SDS011;64371;47.566;19.086;2023-07-31T10:13:05;2.67;;;1.40;;
75758;SDS011;64371;47.566;19.086;2023-07-31T10:16:08;2.08;;;1.58;;
75758;SDS011;64371;47.566;19.086;2023-07-31T10:19:11;2.80;;;1.52;;
75758;SDS011;64371;47.566;19.086;2023-07-31T10:22:14;2.60;;;1.20;;
75758;SDS011;64371;47.566;19.086;2023-07-31T10:25:17;1.80;;;1.20;;
75758;SDS011;64371;47.566;19.086;2023-07-31T10:28:21;3.45;;;1.35;;
75758;SDS011;64371;47.566;19.086;2023-07-31T10:31:24;2.30;;;1.20;;
75758;SDS011;64371;47.566;19.086;2023-07-31T10:34:28;2.72;;;1.40;;
75758;SDS011;64371;47.566;19.086;2023-07-31T10:37:38;3.47;;;1.30;;
75758;SDS011;64371;47.566;19.086;2023-07-31T10:40:40;3.13;;;1.20;;
75758;SDS011;64371;47.566;19.086;2023-07-31T10:43:45;4.65;;;1.60;;
75758;SDS011;64371;47.566;19.086;2023-07-31T10:46:49;2.25;;;1.48;;
75758;SDS011;64371;47.566;19.086;2023-07-31T10:50:19;3.08;;;1.23;;
75758;SDS011;64371;47.566;19.086;2023-07-31T10:53:31;4.13;;;1.58;;
75758;SDS011;64371;47.566;19.086;2023-07-31T10:56:37;4.57;;;1.50;;
75758;SDS011;64371;47.566;19.086;2023-07-31T10:59:41;6.60;;;1.45;;
75758;SDS011;64371;47.566;19.086;2023-07-31T11:02:45;4.72;;;1.48;;
75758;SDS011;64371;47.566;19.086;2023-07-31T11:06:04;3.88;;;1.20;;
75758;SDS011;64371;47.566;19.086;2023-07-31T11:09:06;3.13;;;1.42;;
75758;SDS011;64371;47.566;19.086;2023-07-31T11:12:09;2.47;;;1.30;;
75758;SDS011;64371;47.566;19.086;2023-07-31T11:15:12;2.90;;;1.30;;
75758;SDS011;64371;47.566;19.086;2023-07-31T11:18:14;2.10;;;1.52;;
75758;SDS011;64371;47.566;19.086;2023-07-31T11:21:19;2.13;;;1.30;;
75758;SDS011;64371;47.566;19.086;2023-07-31T11:24:24;4.75;;;1.55;;
75758;SDS011;64371;47.566;19.086;2023-07-31T11:27:27;3.40;;;1.60;;
75758;SDS011;64371;47.566;19.086;2023-07-31T11:30:31;4.32;;;1.40;;
75758;SDS011;64371;47.566;19.086;2023-07-31T11:33:33;2.50;;;1.40;;
75758;SDS011;64371;47.566;19.086;2023-07-31T11:36:36;2.85;;;1.15;;
75758;SDS011;64371;47.566;19.086;2023-07-31T11:39:39;2.67;;;1.17;;
75758;SDS011;64371;47.566;19.086;2023-07-31T11:42:41;2.90;;;1.30;;
75758;SDS011;64371;47.566;19.086;2023-07-31T11:45:48;2.90;;;1.40;;
75758;SDS011;64371;47.566;19.086;2023-07-31T11:48:58;3.08;;;1.20;;
75758;SDS011;64371;47.566;19.086;2023-07-31T11:52:04;3.88;;;1.48;;
75758;SDS011;64371;47.566;19.086;2023-07-31T11:55:08;2.95;;;1.20;;
75758;SDS011;64371;47.566;19.086;2023-07-31T11:58:14;3.33;;;1.30;;
75758;SDS011;64371;47.566;19.086;2023-07-31T12:01:18;2.58;;;1.42;;
75758;SDS011;64371;47.566;19.086;2023-07-31T12:04:23;4.38;;;1.38;;
75758;SDS011;64371;47.566;19.086;2023-07-31T12:07:27;3.45;;;1.13;;
75758;SDS011;64371;47.566;19.086;2023-07-31T12:10:30;2.25;;;1.40;;
75758;SDS011;64371;47.566;19.086;2023-07-31T12:13:34;3.70;;;1.47;;
75758;SDS011;64371;47.566;19.086;2023-07-31T12:16:37;4.13;;;1.10;;
75758;SDS011;64371;47.566;19.086;2023-07-31T12:19:40;3.97;;;1.20;;
75758;SDS011;64371;47.566;19.086;2023-07-31T12:22:42;1.90;;;1.10;;
75758;SDS011;64371;47.566;19.086;2023-07-31T12:25:45;4.35;;;1.20;;
75758;SDS011;64371;47.566;19.086;2023-07-31T12:28:48;1.90;;;1.10;;
75758;SDS011;64371;47.566;19.086;2023-07-31T12:31:51;4.85;;;1.30;;
75758;SDS011;64371;47.566;19.086;2023-07-31T12:34:54;2.67;;;1.42;;
75758;SDS011;64371;47.566;19.086;2023-07-31T12:37:56;3.38;;;1.20;;
75758;SDS011;64371;47.566;19.086;2023-07-31T12:41:03;13.00;;;1.50;;
75758;SDS011;64371;47.566;19.086;2023-07-31T12:44:06;2.03;;;1.33;;
75758;SDS011;64371;47.566;19.086;2023-07-31T12:47:08;2.92;;;2.10;;
75758;SDS011;64371;47.566;19.086;2023-07-31T12:50:11;4.38;;;2.10;;
75758;SDS011;64371;47.566;19.086;2023-07-31T12:53:15;2.78;;;1.30;;
75758;SDS011;64371;47.566;19.086;2023-07-31T12:56:17;1.90;;;1.48;;
75758;SDS011;64371;47.566;19.086;2023-07-31T12:59:19;4.33;;;1.37;;
75758;SDS011;64371;47.566;19.086;2023-07-31T13:02:22;2.00;;;1.30;;
75758;SDS011;64371;47.566;19.086;2023-07-31T13:05:27;3.95;;;1.70;;
75758;SDS011;64371;47.566;19.086;2023-07-31T13:08:31;2.65;;;1.20;;
75758;SDS011;64371;47.566;19.086;2023-07-31T13:11:33;4.18;;;1.45;;
75758;SDS011;64371;47.566;19.086;2023-07-31T13:14:36;3.13;;;1.23;;
75758;SDS011;64371;47.566;19.086;2023-07-31T13:17:38;1.98;;;1.15;;
75758;SDS011;64371;47.566;19.086;2023-07-31T13:20:41;3.25;;;1.40;;
75758;SDS011;64371;47.566;19.086;2023-07-31T13:23:43;3.53;;;1.38;;
75758;SDS011;64371;47.566;19.086;2023-07-31T13:26:45;2.60;;;1.30;;
75758;SDS011;64371;47.566;19.086;2023-07-31T13:29:48;2.30;;;1.20;;
75758;SDS011;64371;47.566;19.086;2023-07-31T13:32:51;2.40;;;1.10;;
75758;SDS011;64371;47.566;19.086;2023-07-31T13:35:53;2.60;;;1.30;;
75758;SDS011;64371;47.566;19.086;2023-07-31T13:38:56;2.30;;;1.38;;
75758;SDS011;64371;47.566;19.086;2023-07-31T13:41:58;2.40;;;1.42;;
75758;SDS011;64371;47.566;19.086;2023-07-31T13:45:00;2.83;;;1.30;;
75758;SDS011;64371;47.566;19.086;2023-07-31T13:48:08;4.28;;;1.38;;
75758;SDS011;64371;47.566;19.086;2023-07-31T13:51:11;2.05;;;1.40;;
75758;SDS011;64371;47.566;19.086;2023-07-31T13:54:13;3.15;;;1.30;;
75758;SDS011;64371;47.566;19.086;2023-07-31T13:57:17;2.70;;;1.40;;
75758;SDS011;64371;47.566;19.086;2023-07-31T14:00:20;2.57;;;1.70;;
75758;SDS011;64371;47.566;19.086;2023-07-31T14:03:22;5.65;;;1.40;;
75758;SDS011;64371;47.566;19.086;2023-07-31T14:06:25;2.92;;;1.40;;
75758;SDS011;64371;47.566;19.086;2023-07-31T14:09:27;1.88;;;1.08;;
75758;SDS011;64371;47.566;19.086;2023-07-31T14:12:30;3.33;;;1.15;;
75758;SDS011;64371;47.566;19.086;2023-07-31T14:15:44;3.50;;;1.50;;
75758;SDS011;64371;47.566;19.086;2023-07-31T14:18:46;2.47;;;1.10;;
75758;SDS011;64371;47.566;19.086;2023-07-31T14:21:49;6.65;;;1.60;;
75758;SDS011;64371;47.566;19.086;2023-07-31T14:25:10;3.25;;;1.30;;
75758;SDS011;64371;47.566;19.086;2023-07-31T14:28:13;2.70;;;1.35;;
75758;SDS011;64371;47.566;19.086;2023-07-31T14:31:15;2.90;;;1.60;;
75758;SDS011;64371;47.566;19.086;2023-07-31T14:34:18;3.63;;;1.40;;
75758;SDS011;64371;47.566;19.086;2023-07-31T14:37:20;3.28;;;1.80;;
75758;SDS011;64371;47.566;19.086;2023-07-31T14:40:22;2.25;;;1.23;;
75758;SDS011;64371;47.566;19.086;2023-07-31T14:43:25;3.47;;;1.45;;
75758;SDS011;64371;47.566;19.086;2023-07-31T14:46:27;1.83;;;1.30;;
75758;SDS011;64371;47.566;19.086;2023-07-31T14:49:29;2.55;;;1.48;;
75758;SDS011;64371;47.566;19.086;2023-07-31T14:52:32;2.30;;;1.33;;
75758;SDS011;64371;47.566;19.086;2023-07-31T14:55:34;3.38;;;1.40;;
75758;SDS011;64371;47.566;19.086;2023-07-31T14:58:37;2.10;;;1.40;;
75758;SDS011;64371;47.566;19.086;2023-07-31T15:01:39;3.53;;;1.47;;
75758;SDS011;64371;47.566;19.086;2023-07-31T15:04:42;2.28;;;1.20;;
75758;SDS011;64371;47.566;19.086;2023-07-31T15:07:44;3.10;;;1.42;;
75758;SDS011;64371;47.566;19.086;2023-07-31T15:10:46;2.50;;;1.20;;
75758;SDS011;64371;47.566;19.086;2023-07-31T15:13:49;4.13;;;1.40;;
75758;SDS011;64371;47.566;19.086;2023-07-31T15:16:52;3.20;;;1.40;;
75758;SDS011;64371;47.566;19.086;2023-07-31T15:19:54;4.35;;;1.30;;
75758;SDS011;64371;47.566;19.086;2023-07-31T15:22:57;2.75;;;1.50;;
75758;SDS011;64371;47.566;19.086;2023-07-31T15:25:59;3.83;;;1.30;;
75758;SDS011;64371;47.566;19.086;2023-07-31T15:29:05;3.70;;;1.40;;
75758;SDS011;64371;47.566;19.086;2023-07-31T15:32:13;6.33;;;1.30;;
75758;SDS011;64371;47.566;19.086;2023-07-31T15:35:15;2.35;;;1.08;;
75758;SDS011;64371;47.566;19.086;2023-07-31T15:38:21;2.47;;;1.77;;
75758;SDS011;64371;47.566;19.086;2023-07-31T15:41:24;2.30;;;1.10;;
75758;SDS011;64371;47.566;19.086;2023-07-31T15:44:27;4.82;;;1.70;;
75758;SDS011;64371;47.566;19.086;2023-07-31T15:47:29;3.40;;;1.50;;
75758;SDS011;64371;47.566;19.086;2023-07-31T15:50:32;5.53;;;1.55;;
75758;SDS011;64371;47.566;19.086;2023-07-31T15:53:34;2.42;;;1.52;;
75758;SDS011;64371;47.566;19.086;2023-07-31T15:56:37;2.28;;;1.40;;
75758;SDS011;64371;47.566;19.086;2023-07-31T15:59:40;2.88;;;1.60;;
75758;SDS011;64371;47.566;19.086;2023-07-31T16:02:42;2.33;;;1.30;;
75758;SDS011;64371;47.566;19.086;2023-07-31T16:05:45;3.63;;;1.30;;
75758;SDS011;64371;47.566;19.086;2023-07-31T16:08:47;2.40;;;1.23;;
75758;SDS011;64371;47.566;19.086;2023-07-31T16:11:50;2.83;;;0.98;;
75758;SDS011;64371;47.566;19.086;2023-07-31T16:14:52;4.60;;;1.40;;
75758;SDS011;64371;47.566;19.086;2023-07-31T16:17:55;3.00;;;1.20;;
75758;SDS011;64371;47.566;19.086;2023-07-31T16:21:00;2.17;;;1.20;;
75758;SDS011;64371;47.566;19.086;2023-07-31T16:24:02;2.10;;;1.50;;
75758;SDS011;64371;47.566;19.086;2023-07-31T16:27:05;3.35;;;1.20;;
75758;SDS011;64371;47.566;19.086;2023-07-31T16:30:08;3.38;;;1.17;;
75758;SDS011;64371;47.566;19.086;2023-07-31T16:33:11;2.90;;;1.20;;
75758;SDS011;64371;47.566;19.086;2023-07-31T16:36:14;5.10;;;1.25;;
75758;SDS011;64371;47.566;19.086;2023-07-31T16:39:16;2.28;;;1.30;;
75758;SDS011;64371;47.566;19.086;2023-07-31T16:42:19;2.92;;;1.48;;
75758;SDS011;64371;47.566;19.086;2023-07-31T16:45:22;2.22;;;1.40;;
75758;SDS011;64371;47.566;19.086;2023-07-31T16:48:25;4.03;;;1.13;;
75758;SDS011;64371;47.566;19.086;2023-07-31T16:51:29;2.88;;;1.02;;
75758;SDS011;64371;47.566;19.086;2023-07-31T16:54:31;2.95;;;1.17;;
75758;SDS011;64371;47.566;19.086;2023-07-31T16:57:34;4.10;;;1.20;;
75758;SDS011;64371;47.566;19.086;2023-07-31T17:00:37;3.90;;;1.88;;
75758;SDS011;64371;47.566;19.086;2023-07-31T17:03:39;4.60;;;1.30;;
75758;SDS011;64371;47.566;19.086;2023-07-31T17:06:42;3.42;;;1.20;;
75758;SDS011;64371;47.566;19.086;2023-07-31T17:09:44;2.22;;;1.38;;
75758;SDS011;64371;47.566;19.086;2023-07-31T17:12:47;2.70;;;1.00;;
75758;SDS011;64371;47.566;19.086;2023-07-31T17:15:49;3.53;;;1.42;;
75758;SDS011;64371;47.566;19.086;2023-07-31T17:18:51;2.37;;;1.10;;
75758;SDS011;64371;47.566;19.086;2023-07-31T17:21:54;2.85;;;1.13;;
75758;SDS011;64371;47.566;19.086;2023-07-31T17:24:56;4.82;;;1.55;;
75758;SDS011;64371;47.566;19.086;2023-07-31T17:27:59;4.65;;;1.50;;
75758;SDS011;64371;47.566;19.086;2023-07-31T17:31:01;5.63;;;1.55;;
75758;SDS011;64371;47.566;19.086;2023-07-31T17:34:03;3.17;;;1.57;;
75758;SDS011;64371;47.566;19.086;2023-07-31T17:37:06;3.85;;;1.40;;
75758;SDS011;64371;47.566;19.086;2023-07-31T17:40:08;2.58;;;1.40;;
75758;SDS011;64371;47.566;19.086;2023-07-31T17:43:11;3.88;;;1.20;;
75758;SDS011;64371;47.566;19.086;2023-07-31T17:46:14;2.05;;;1.30;;
75758;SDS011;64371;47.566;19.086;2023-07-31T17:49:16;4.20;;;1.30;;
75758;SDS011;64371;47.566;19.086;2023-07-31T17:52:19;2.47;;;1.10;;
75758;SDS011;64371;47.566;19.086;2023-07-31T17:55:21;4.40;;;2.15;;
75758;SDS011;64371;47.566;19.086;2023-07-31T17:58:24;4.78;;;1.30;;
75758;SDS011;64371;47.566;19.086;2023-07-31T18:01:27;3.03;;;1.50;;
75758;SDS011;64371;47.566;19.086;2023-07-31T18:04:29;5.63;;;1.30;;
75758;SDS011;64371;47.566;19.086;2023-07-31T18:07:32;3.15;;;1.30;;
75758;SDS011;64371;47.566;19.086;2023-07-31T18:10:34;3.85;;;1.67;;
75758;SDS011;64371;47.566;19.086;2023-07-31T18:13:37;9.45;;;4.75;;
75758;SDS011;64371;47.566;19.086;2023-07-31T18:16:39;4.72;;;2.90;;